ACA721 KTPA-CYUL
Flight info
| Callsign | ACA721 |
|---|---|
| Flight time | 2h 57m |
| Altitude | 35000 |
| Route | BAYPO2 CAMJO Q99 POLYY DCT DADDS Q87 GEARS DCT BBOBO Q22 LLUND DCT CAM DCT JASDU DCT PBERG CARTR5 |
| Aircraft | A321/M-SDE3FGHIRWY/LB1 |
Departure
| Time | 2026-05-04 20:52 |
|---|---|
| Airport | Tampa International Airport (KTPA) |
Arrival
| Time | 2026-05-04 23:50 |
|---|---|
| Airport | Montreal / Pierre Elliott Trudeau International Airport (CYUL) |
| Time | Latitude | Longitude | Altitude | Speed | Heading |
|---|---|---|---|---|---|
| 2026-05-04 20:21 | 27.97508 | -82.53273 | 43 ft | 0 kts | 91° |
| 2026-05-04 20:43 | 27.97508 | -82.53283 | 41 ft | 3 kts | 91° |
| 2026-05-04 20:44 | 27.97509 | -82.53305 | 43 ft | 3 kts | 91° |
| 2026-05-04 20:44 | 27.97509 | -82.53326 | 43 ft | 3 kts | 91° |
| 2026-05-04 20:44 | 27.97510 | -82.53347 | 43 ft | 3 kts | 91° |
| 2026-05-04 20:44 | 27.97510 | -82.53367 | 43 ft | 3 kts | 91° |
| 2026-05-04 20:45 | 27.97515 | -82.53387 | 43 ft | 3 kts | 147° |
| 2026-05-04 20:45 | 27.97522 | -82.53391 | 43 ft | 0 kts | 167° |
| 2026-05-04 20:47 | 27.97521 | -82.53391 | 43 ft | 1 kts | 167° |
| 2026-05-04 20:47 | 27.97471 | -82.53375 | 43 ft | 11 kts | 167° |
| 2026-05-04 20:47 | 27.97414 | -82.53356 | 43 ft | 7 kts | 155° |
| 2026-05-04 20:47 | 27.97373 | -82.53332 | 43 ft | 7 kts | 153° |
| 2026-05-04 20:48 | 27.97329 | -82.53306 | 42 ft | 8 kts | 141° |
| 2026-05-04 20:48 | 27.97310 | -82.53245 | 43 ft | 10 kts | 97° |
| 2026-05-04 20:48 | 27.97305 | -82.53132 | 43 ft | 16 kts | 91° |
| 2026-05-04 20:48 | 27.97284 | -82.53013 | 42 ft | 15 kts | 136° |
| 2026-05-04 20:49 | 27.97180 | -82.53001 | 40 ft | 15 kts | 181° |
| 2026-05-04 20:49 | 27.97064 | -82.53004 | 36 ft | 18 kts | 181° |
| 2026-05-04 20:49 | 27.96953 | -82.53008 | 39 ft | 14 kts | 181° |
| 2026-05-04 20:49 | 27.96860 | -82.53010 | 41 ft | 13 kts | 181° |
| 2026-05-04 20:50 | 27.96770 | -82.53013 | 41 ft | 13 kts | 181° |
| 2026-05-04 20:50 | 27.96678 | -82.53016 | 41 ft | 13 kts | 181° |
| 2026-05-04 20:50 | 27.96582 | -82.53018 | 41 ft | 14 kts | 181° |
| 2026-05-04 20:50 | 27.96485 | -82.53017 | 41 ft | 14 kts | 168° |
| 2026-05-04 20:51 | 27.96455 | -82.52929 | 38 ft | 15 kts | 63° |
| 2026-05-04 20:51 | 27.96554 | -82.52895 | 37 ft | 19 kts | 4° |
| 2026-05-04 20:51 | 27.96890 | -82.52883 | 37 ft | 82 kts | 1° |
| 2026-05-04 20:51 | 27.97655 | -82.52858 | 39 ft | 136 kts | 2° |
| 2026-05-04 20:52 | 27.98746 | -82.52822 | 86 ft | 172 kts | 0° |
| 2026-05-04 20:52 | 27.99893 | -82.52842 | 753 ft | 160 kts | 358° |
| 2026-05-04 20:52 | 28.01016 | -82.52862 | 1221 ft | 165 kts | 0° |
| 2026-05-04 20:52 | 28.02199 | -82.52825 | 1693 ft | 174 kts | 3° |
| 2026-05-04 20:53 | 28.03433 | -82.52739 | 2144 ft | 185 kts | 3° |
| 2026-05-04 20:53 | 28.04763 | -82.52855 | 2375 ft | 206 kts | 346° |
| 2026-05-04 20:53 | 28.06209 | -82.53294 | 2585 ft | 225 kts | 346° |
| 2026-05-04 20:53 | 28.07802 | -82.53791 | 2770 ft | 251 kts | 346° |
| 2026-05-04 20:54 | 28.09535 | -82.54333 | 3315 ft | 263 kts | 346° |
| 2026-05-04 20:54 | 28.11317 | -82.54896 | 4075 ft | 268 kts | 345° |
| 2026-05-04 20:54 | 28.13122 | -82.55471 | 4843 ft | 271 kts | 345° |
| 2026-05-04 20:54 | 28.14948 | -82.56051 | 5606 ft | 273 kts | 345° |
| 2026-05-04 20:55 | 28.16788 | -82.56633 | 6333 ft | 277 kts | 345° |
| 2026-05-04 20:55 | 28.18661 | -82.57224 | 7061 ft | 281 kts | 345° |
| 2026-05-04 20:55 | 28.20593 | -82.57624 | 7769 ft | 284 kts | 358° |
| 2026-05-04 20:55 | 28.22584 | -82.57682 | 8456 ft | 288 kts | 359° |
| 2026-05-04 20:56 | 28.24606 | -82.57734 | 9124 ft | 292 kts | 359° |
| 2026-05-04 20:56 | 28.26648 | -82.57789 | 9751 ft | 295 kts | 359° |
| 2026-05-04 20:56 | 28.28724 | -82.57847 | 10217 ft | 307 kts | 358° |
| 2026-05-04 20:56 | 28.30935 | -82.57911 | 10352 ft | 328 kts | 358° |
| 2026-05-04 20:57 | 28.33279 | -82.57981 | 10605 ft | 343 kts | 358° |
| 2026-05-04 20:57 | 28.35681 | -82.58057 | 11154 ft | 347 kts | 358° |
| 2026-05-04 20:57 | 28.38115 | -82.58128 | 11786 ft | 351 kts | 358° |
| 2026-05-04 20:57 | 28.40566 | -82.58192 | 12403 ft | 353 kts | 357° |
| 2026-05-04 20:58 | 28.43029 | -82.58252 | 13015 ft | 356 kts | 357° |
| 2026-05-04 20:58 | 28.45517 | -82.58312 | 13601 ft | 359 kts | 357° |
| 2026-05-04 20:58 | 28.48026 | -82.58373 | 14172 ft | 362 kts | 357° |
| 2026-05-04 20:58 | 28.50560 | -82.58435 | 14736 ft | 365 kts | 357° |
| 2026-05-04 20:59 | 28.53112 | -82.58497 | 15289 ft | 368 kts | 357° |
| 2026-05-04 20:59 | 28.55684 | -82.58562 | 15812 ft | 372 kts | 357° |
| 2026-05-04 20:59 | 28.58282 | -82.58628 | 16336 ft | 374 kts | 356° |
| 2026-05-04 20:59 | 28.60894 | -82.58693 | 16848 ft | 377 kts | 356° |
| 2026-05-04 21:00 | 28.63524 | -82.58761 | 17317 ft | 380 kts | 356° |
| 2026-05-04 21:00 | 28.66187 | -82.58831 | 17794 ft | 383 kts | 356° |
| 2026-05-04 21:00 | 28.68840 | -82.59095 | 18234 ft | 384 kts | 351° |
| 2026-05-04 21:00 | 28.71502 | -82.59464 | 18684 ft | 387 kts | 351° |
| 2026-05-04 21:01 | 28.74186 | -82.59840 | 19130 ft | 389 kts | 351° |
| 2026-05-04 21:01 | 28.76849 | -82.60215 | 19550 ft | 392 kts | 351° |
| 2026-05-04 21:01 | 28.79564 | -82.60593 | 19972 ft | 394 kts | 351° |
| 2026-05-04 21:01 | 28.82299 | -82.60976 | 20369 ft | 396 kts | 351° |
| 2026-05-04 21:02 | 28.85047 | -82.61363 | 20752 ft | 397 kts | 350° |
| 2026-05-04 21:02 | 28.87798 | -82.61747 | 21111 ft | 400 kts | 350° |
| 2026-05-04 21:02 | 28.90576 | -82.62133 | 21484 ft | 403 kts | 350° |
| 2026-05-04 21:02 | 28.93360 | -82.62520 | 21833 ft | 405 kts | 350° |
| 2026-05-04 21:03 | 28.96163 | -82.62912 | 22186 ft | 406 kts | 350° |
| 2026-05-04 21:03 | 28.98978 | -82.63308 | 22520 ft | 409 kts | 350° |
| 2026-05-04 21:03 | 29.01802 | -82.63706 | 22862 ft | 410 kts | 350° |
| 2026-05-04 21:03 | 29.04641 | -82.64105 | 23209 ft | 412 kts | 350° |
| 2026-05-04 21:04 | 29.07501 | -82.64503 | 23528 ft | 414 kts | 350° |
| 2026-05-04 21:04 | 29.10373 | -82.64905 | 23855 ft | 416 kts | 350° |
| 2026-05-04 21:04 | 29.13251 | -82.65308 | 24184 ft | 418 kts | 350° |
| 2026-05-04 21:04 | 29.15170 | -82.65577 | 24404 ft | 419 kts | 350° |
| 2026-05-04 21:05 | 29.18070 | -82.65984 | 24726 ft | 421 kts | 350° |
| 2026-05-04 21:05 | 29.20985 | -82.66390 | 25054 ft | 423 kts | 350° |
| 2026-05-04 21:05 | 29.23915 | -82.66798 | 25370 ft | 425 kts | 349° |
| 2026-05-04 21:05 | 29.26855 | -82.67209 | 25688 ft | 427 kts | 349° |
| 2026-05-04 21:06 | 29.29807 | -82.67627 | 26016 ft | 428 kts | 349° |
| 2026-05-04 21:06 | 29.32772 | -82.68049 | 26324 ft | 430 kts | 349° |
| 2026-05-04 21:06 | 29.35744 | -82.68467 | 26618 ft | 431 kts | 349° |
| 2026-05-04 21:06 | 29.38736 | -82.68886 | 26902 ft | 433 kts | 349° |
| 2026-05-04 21:07 | 29.41736 | -82.69271 | 27172 ft | 436 kts | 353° |
| 2026-05-04 21:07 | 29.44786 | -82.69310 | 27442 ft | 440 kts | 356° |
| 2026-05-04 21:07 | 29.47854 | -82.69293 | 27712 ft | 441 kts | 356° |
| 2026-05-04 21:07 | 29.50928 | -82.69275 | 27989 ft | 443 kts | 356° |
| 2026-05-04 21:08 | 29.53978 | -82.69254 | 28251 ft | 444 kts | 356° |
| 2026-05-04 21:08 | 29.57078 | -82.69234 | 28507 ft | 446 kts | 356° |
| 2026-05-04 21:08 | 29.60185 | -82.69210 | 28761 ft | 448 kts | 356° |
| 2026-05-04 21:08 | 29.63313 | -82.69187 | 29015 ft | 449 kts | 356° |
| 2026-05-04 21:09 | 29.66442 | -82.69166 | 29255 ft | 451 kts | 356° |
| 2026-05-04 21:09 | 29.69587 | -82.69145 | 29489 ft | 452 kts | 356° |
| 2026-05-04 21:09 | 29.72738 | -82.69126 | 29712 ft | 454 kts | 356° |
| 2026-05-04 21:09 | 29.75900 | -82.69108 | 29932 ft | 455 kts | 356° |
| 2026-05-04 21:10 | 29.79074 | -82.69088 | 30145 ft | 457 kts | 356° |
| 2026-05-04 21:10 | 29.82253 | -82.69072 | 30352 ft | 458 kts | 356° |
| 2026-05-04 21:10 | 29.85443 | -82.69056 | 30547 ft | 459 kts | 356° |
| 2026-05-04 21:10 | 29.88640 | -82.69035 | 30734 ft | 460 kts | 356° |
| 2026-05-04 21:11 | 29.91847 | -82.69011 | 30917 ft | 461 kts | 356° |
| 2026-05-04 21:11 | 29.95058 | -82.68987 | 31138 ft | 461 kts | 356° |
| 2026-05-04 21:11 | 29.98264 | -82.68961 | 31397 ft | 461 kts | 356° |
| 2026-05-04 21:11 | 30.01463 | -82.68939 | 31653 ft | 460 kts | 356° |
| 2026-05-04 21:12 | 30.04616 | -82.68922 | 31909 ft | 458 kts | 356° |
| 2026-05-04 21:12 | 30.07809 | -82.68904 | 32164 ft | 458 kts | 356° |
| 2026-05-04 21:12 | 30.10992 | -82.68883 | 32409 ft | 457 kts | 356° |
| 2026-05-04 21:12 | 30.14172 | -82.68864 | 32650 ft | 456 kts | 356° |
| 2026-05-04 21:13 | 30.17343 | -82.68842 | 32883 ft | 456 kts | 356° |
| 2026-05-04 21:13 | 30.20510 | -82.68823 | 33118 ft | 455 kts | 356° |
| 2026-05-04 21:13 | 30.23673 | -82.68809 | 33346 ft | 454 kts | 355° |
| 2026-05-04 21:13 | 30.26836 | -82.68793 | 33573 ft | 454 kts | 356° |
| 2026-05-04 21:14 | 30.29990 | -82.68773 | 33804 ft | 453 kts | 356° |
| 2026-05-04 21:14 | 30.33144 | -82.68753 | 34020 ft | 453 kts | 356° |
| 2026-05-04 21:14 | 30.36296 | -82.68733 | 34246 ft | 452 kts | 356° |
| 2026-05-04 21:14 | 30.39442 | -82.68711 | 34443 ft | 452 kts | 356° |
| 2026-05-04 21:15 | 30.42582 | -82.68688 | 34645 ft | 452 kts | 356° |
| 2026-05-04 21:15 | 30.45727 | -82.68665 | 34833 ft | 452 kts | 356° |
| 2026-05-04 21:15 | 30.48868 | -82.68643 | 35008 ft | 452 kts | 356° |
| 2026-05-04 21:15 | 30.51999 | -82.68391 | 35055 ft | 452 kts | 5° |
| 2026-05-04 21:16 | 30.58168 | -82.67098 | 35054 ft | 449 kts | 6° |
| 2026-05-04 21:16 | 30.64308 | -82.65788 | 35060 ft | 449 kts | 6° |
| 2026-05-04 21:17 | 30.70451 | -82.64469 | 35066 ft | 448 kts | 6° |
| 2026-05-04 21:17 | 30.76584 | -82.63159 | 35063 ft | 448 kts | 6° |
| 2026-05-04 21:18 | 30.82723 | -82.61850 | 35069 ft | 448 kts | 6° |
| 2026-05-04 21:18 | 30.88829 | -82.60547 | 35061 ft | 450 kts | 6° |
| 2026-05-04 21:19 | 30.94990 | -82.59234 | 35055 ft | 451 kts | 6° |
| 2026-05-04 21:19 | 31.01164 | -82.57908 | 35061 ft | 451 kts | 6° |
| 2026-05-04 21:20 | 31.07337 | -82.56500 | 35064 ft | 454 kts | 11° |
| 2026-05-04 21:20 | 31.13184 | -82.53566 | 35069 ft | 461 kts | 24° |
| 2026-05-04 21:21 | 31.18865 | -82.50108 | 35066 ft | 461 kts | 24° |
| 2026-05-04 21:21 | 31.24520 | -82.46677 | 35062 ft | 461 kts | 24° |
| 2026-05-04 21:22 | 31.30208 | -82.43223 | 35062 ft | 461 kts | 24° |
| 2026-05-04 21:22 | 31.35898 | -82.39759 | 35065 ft | 461 kts | 24° |
| 2026-05-04 21:23 | 31.41589 | -82.36284 | 35063 ft | 461 kts | 24° |
| 2026-05-04 21:23 | 31.47278 | -82.32814 | 35059 ft | 461 kts | 24° |
| 2026-05-04 21:24 | 31.52926 | -82.29367 | 35063 ft | 461 kts | 24° |
| 2026-05-04 21:24 | 31.58614 | -82.25881 | 35065 ft | 461 kts | 24° |
| 2026-05-04 21:25 | 31.64302 | -82.22390 | 35072 ft | 461 kts | 24° |
| 2026-05-04 21:25 | 31.69995 | -82.18889 | 35081 ft | 462 kts | 24° |
| 2026-05-04 21:26 | 31.75681 | -82.15394 | 35076 ft | 461 kts | 24° |
| 2026-05-04 21:26 | 31.81373 | -82.11889 | 35072 ft | 462 kts | 24° |
| 2026-05-04 21:27 | 31.87074 | -82.08377 | 35078 ft | 462 kts | 24° |
| 2026-05-04 21:27 | 31.92776 | -82.04865 | 35079 ft | 462 kts | 24° |
| 2026-05-04 21:28 | 31.98471 | -82.01340 | 35075 ft | 462 kts | 24° |
| 2026-05-04 21:28 | 32.04158 | -81.97810 | 35079 ft | 462 kts | 24° |
| 2026-05-04 21:29 | 32.09813 | -81.94299 | 35068 ft | 462 kts | 24° |
| 2026-05-04 21:29 | 32.15502 | -81.90772 | 35069 ft | 462 kts | 24° |
| 2026-05-04 21:30 | 32.21238 | -81.87360 | 35069 ft | 461 kts | 22° |
| 2026-05-04 21:30 | 32.27007 | -81.84034 | 35071 ft | 461 kts | 22° |
| 2026-05-04 21:31 | 32.35646 | -81.79003 | 35074 ft | 462 kts | 22° |
| 2026-05-04 21:32 | 32.41391 | -81.75604 | 35068 ft | 462 kts | 23° |
| 2026-05-04 21:32 | 32.47138 | -81.72204 | 35066 ft | 462 kts | 23° |
| 2026-05-04 21:33 | 32.52890 | -81.68803 | 35062 ft | 462 kts | 23° |
| 2026-05-04 21:33 | 32.58638 | -81.65413 | 35065 ft | 461 kts | 23° |
| 2026-05-04 21:34 | 32.64380 | -81.62018 | 35074 ft | 461 kts | 23° |
| 2026-05-04 21:34 | 32.70077 | -81.58637 | 35075 ft | 461 kts | 23° |
| 2026-05-04 21:35 | 32.75811 | -81.55233 | 35083 ft | 460 kts | 23° |
| 2026-05-04 21:35 | 32.81539 | -81.51829 | 35079 ft | 460 kts | 23° |
| 2026-05-04 21:36 | 32.87262 | -81.48414 | 35078 ft | 460 kts | 23° |
| 2026-05-04 21:36 | 32.92988 | -81.44997 | 35077 ft | 460 kts | 23° |
| 2026-05-04 21:37 | 32.98709 | -81.41581 | 35080 ft | 459 kts | 23° |
| 2026-05-04 21:37 | 33.04416 | -81.38172 | 35067 ft | 459 kts | 23° |
| 2026-05-04 21:38 | 33.10086 | -81.34772 | 35064 ft | 459 kts | 23° |
| 2026-05-04 21:38 | 33.15784 | -81.31349 | 35063 ft | 458 kts | 23° |
| 2026-05-04 21:39 | 33.21478 | -81.27926 | 35067 ft | 458 kts | 24° |
| 2026-05-04 21:39 | 33.27172 | -81.24498 | 35071 ft | 458 kts | 23° |
| 2026-05-04 21:40 | 33.32868 | -81.21064 | 35072 ft | 458 kts | 24° |
| 2026-05-04 21:40 | 33.38557 | -81.17634 | 35069 ft | 458 kts | 24° |
| 2026-05-04 21:41 | 33.44248 | -81.14195 | 35064 ft | 458 kts | 24° |
| 2026-05-04 21:41 | 33.49938 | -81.10745 | 35060 ft | 458 kts | 24° |
| 2026-05-04 21:42 | 33.55588 | -81.07316 | 35059 ft | 458 kts | 24° |
| 2026-05-04 21:42 | 33.61272 | -81.03868 | 35055 ft | 458 kts | 24° |
| 2026-05-04 21:43 | 33.66959 | -81.00416 | 35052 ft | 458 kts | 24° |
| 2026-05-04 21:43 | 33.72635 | -80.96962 | 35046 ft | 457 kts | 24° |
| 2026-05-04 21:44 | 33.78309 | -80.93500 | 35045 ft | 457 kts | 24° |
| 2026-05-04 21:44 | 33.83974 | -80.90018 | 35045 ft | 457 kts | 26° |
| 2026-05-04 21:45 | 33.89187 | -80.85581 | 35041 ft | 461 kts | 35° |
| 2026-05-04 21:45 | 33.94249 | -80.80838 | 35039 ft | 460 kts | 35° |
| 2026-05-04 21:46 | 33.99274 | -80.76119 | 35035 ft | 461 kts | 35° |
| 2026-05-04 21:46 | 34.04339 | -80.71361 | 35038 ft | 461 kts | 35° |
| 2026-05-04 21:47 | 34.09389 | -80.66620 | 35042 ft | 460 kts | 35° |
| 2026-05-04 21:47 | 34.14439 | -80.61853 | 35045 ft | 460 kts | 36° |
| 2026-05-04 21:48 | 34.19452 | -80.57120 | 35049 ft | 460 kts | 36° |
| 2026-05-04 21:48 | 34.24491 | -80.52353 | 35053 ft | 460 kts | 36° |
| 2026-05-04 21:49 | 34.29551 | -80.47608 | 35056 ft | 460 kts | 34° |
| 2026-05-04 21:49 | 34.34641 | -80.42940 | 35052 ft | 459 kts | 34° |
| 2026-05-04 21:50 | 34.39737 | -80.38266 | 35050 ft | 459 kts | 34° |
| 2026-05-04 21:50 | 34.44824 | -80.33564 | 35051 ft | 460 kts | 35° |
| 2026-05-04 21:51 | 34.49901 | -80.28847 | 35054 ft | 460 kts | 35° |
| 2026-05-04 21:51 | 34.54978 | -80.24132 | 35052 ft | 460 kts | 35° |
| 2026-05-04 21:52 | 34.60060 | -80.19421 | 35047 ft | 460 kts | 34° |
| 2026-05-04 21:52 | 34.65112 | -80.14734 | 35048 ft | 460 kts | 35° |
| 2026-05-04 21:53 | 34.70181 | -80.10005 | 35043 ft | 460 kts | 35° |
| 2026-05-04 21:53 | 34.75259 | -80.05275 | 35044 ft | 459 kts | 35° |
| 2026-05-04 21:54 | 34.80302 | -80.00503 | 35037 ft | 461 kts | 40° |
| 2026-05-04 21:54 | 34.84555 | -79.94642 | 35026 ft | 463 kts | 49° |
| 2026-05-04 21:55 | 34.88630 | -79.88547 | 35022 ft | 463 kts | 49° |
| 2026-05-04 21:55 | 34.92714 | -79.82461 | 35022 ft | 464 kts | 49° |
| 2026-05-04 21:56 | 34.96789 | -79.76357 | 35029 ft | 465 kts | 49° |
| 2026-05-04 21:56 | 35.00864 | -79.70228 | 35033 ft | 465 kts | 49° |
| 2026-05-04 21:57 | 35.04913 | -79.64143 | 35034 ft | 465 kts | 49° |
| 2026-05-04 21:57 | 35.08989 | -79.58013 | 35026 ft | 465 kts | 49° |
| 2026-05-04 21:58 | 35.13051 | -79.51869 | 35025 ft | 465 kts | 49° |
| 2026-05-04 21:58 | 35.17110 | -79.45729 | 35025 ft | 465 kts | 49° |
| 2026-05-04 21:59 | 35.21172 | -79.39576 | 35030 ft | 465 kts | 49° |
| 2026-05-04 21:59 | 35.24549 | -79.34456 | 35035 ft | 465 kts | 49° |
| 2026-05-04 22:00 | 35.28607 | -79.28287 | 35037 ft | 465 kts | 49° |
| 2026-05-04 22:00 | 35.32658 | -79.22110 | 35035 ft | 465 kts | 49° |
| 2026-05-04 22:01 | 35.36713 | -79.15938 | 35031 ft | 465 kts | 49° |
| 2026-05-04 22:01 | 35.40766 | -79.09759 | 35030 ft | 465 kts | 49° |
| 2026-05-04 22:02 | 35.44814 | -79.03566 | 35025 ft | 465 kts | 49° |
| 2026-05-04 22:02 | 35.48854 | -78.97369 | 35022 ft | 465 kts | 49° |
| 2026-05-04 22:03 | 35.52894 | -78.91160 | 35022 ft | 465 kts | 49° |
| 2026-05-04 22:03 | 35.56935 | -78.84944 | 35024 ft | 466 kts | 49° |
| 2026-05-04 22:04 | 35.61243 | -78.79114 | 35023 ft | 462 kts | 37° |
| 2026-05-04 22:04 | 35.66604 | -78.74904 | 35022 ft | 456 kts | 26° |
| 2026-05-04 22:05 | 35.72139 | -78.71077 | 35018 ft | 456 kts | 26° |
| 2026-05-04 22:05 | 35.77668 | -78.67224 | 35013 ft | 457 kts | 26° |
| 2026-05-04 22:06 | 35.83200 | -78.63359 | 35010 ft | 458 kts | 26° |
| 2026-05-04 22:06 | 35.88745 | -78.59488 | 35017 ft | 458 kts | 26° |
| 2026-05-04 22:07 | 35.94301 | -78.55613 | 35010 ft | 459 kts | 26° |
| 2026-05-04 22:07 | 35.99851 | -78.51722 | 35023 ft | 459 kts | 26° |
| 2026-05-04 22:08 | 36.05400 | -78.47819 | 35031 ft | 459 kts | 26° |
| 2026-05-04 22:08 | 36.10952 | -78.43903 | 35040 ft | 459 kts | 26° |
| 2026-05-04 22:09 | 36.16464 | -78.40017 | 35038 ft | 459 kts | 26° |
| 2026-05-04 22:09 | 36.22023 | -78.36108 | 35040 ft | 459 kts | 26° |
| 2026-05-04 22:10 | 36.27568 | -78.32201 | 35038 ft | 458 kts | 26° |
| 2026-05-04 22:10 | 36.33111 | -78.28287 | 35031 ft | 458 kts | 26° |
| 2026-05-04 22:11 | 36.38494 | -78.24064 | 35030 ft | 461 kts | 37° |
| 2026-05-04 22:11 | 36.43190 | -78.18608 | 35026 ft | 462 kts | 41° |
| 2026-05-04 22:12 | 36.47862 | -78.13111 | 35024 ft | 462 kts | 41° |
| 2026-05-04 22:12 | 36.52544 | -78.07625 | 35028 ft | 462 kts | 41° |
| 2026-05-04 22:13 | 36.57218 | -78.02130 | 35032 ft | 462 kts | 41° |
| 2026-05-04 22:13 | 36.61847 | -77.96657 | 35039 ft | 462 kts | 41° |
| 2026-05-04 22:14 | 36.66515 | -77.91138 | 35046 ft | 463 kts | 41° |
| 2026-05-04 22:14 | 36.71178 | -77.85610 | 35048 ft | 463 kts | 41° |
| 2026-05-04 22:15 | 36.75840 | -77.80071 | 35038 ft | 462 kts | 41° |
| 2026-05-04 22:15 | 36.80491 | -77.74538 | 35026 ft | 461 kts | 41° |
| 2026-05-04 22:16 | 36.85136 | -77.69009 | 35019 ft | 461 kts | 41° |
| 2026-05-04 22:16 | 36.89774 | -77.63478 | 35016 ft | 460 kts | 41° |
| 2026-05-04 22:17 | 36.94403 | -77.57949 | 35012 ft | 459 kts | 41° |
| 2026-05-04 22:17 | 36.99019 | -77.52424 | 35006 ft | 459 kts | 41° |
| 2026-05-04 22:18 | 37.03637 | -77.46898 | 35007 ft | 459 kts | 41° |
| 2026-05-04 22:18 | 37.08259 | -77.41461 | 35001 ft | 457 kts | 36° |
| 2026-05-04 22:19 | 37.13694 | -77.37502 | 34997 ft | 449 kts | 17° |
| 2026-05-04 22:19 | 37.19590 | -77.34957 | 34994 ft | 448 kts | 16° |
| 2026-05-04 22:20 | 37.25485 | -77.32404 | 34983 ft | 448 kts | 16° |
| 2026-05-04 22:20 | 37.31382 | -77.29840 | 34983 ft | 448 kts | 16° |
| 2026-05-04 22:21 | 37.37281 | -77.27267 | 34977 ft | 448 kts | 16° |
| 2026-05-04 22:21 | 37.43165 | -77.24698 | 34975 ft | 448 kts | 16° |
| 2026-05-04 22:22 | 37.49050 | -77.22127 | 34971 ft | 448 kts | 16° |
| 2026-05-04 22:22 | 37.54937 | -77.19548 | 34969 ft | 448 kts | 16° |
| 2026-05-04 22:23 | 37.60823 | -77.16976 | 34969 ft | 448 kts | 16° |
| 2026-05-04 22:23 | 37.66669 | -77.14406 | 34970 ft | 447 kts | 16° |
| 2026-05-04 22:24 | 37.72351 | -77.11154 | 34968 ft | 451 kts | 26° |
| 2026-05-04 22:24 | 37.77854 | -77.07348 | 34965 ft | 451 kts | 26° |
| 2026-05-04 22:25 | 37.83352 | -77.03539 | 34967 ft | 451 kts | 26° |
| 2026-05-04 22:25 | 37.88856 | -76.99734 | 34969 ft | 451 kts | 26° |
| 2026-05-04 22:26 | 37.94358 | -76.95911 | 34971 ft | 451 kts | 26° |
| 2026-05-04 22:26 | 37.99859 | -76.92076 | 34967 ft | 451 kts | 26° |
| 2026-05-04 22:27 | 38.05319 | -76.88267 | 34975 ft | 450 kts | 26° |
| 2026-05-04 22:27 | 38.10800 | -76.84444 | 34980 ft | 449 kts | 26° |
| 2026-05-04 22:28 | 38.16270 | -76.80614 | 34978 ft | 448 kts | 26° |
| 2026-05-04 22:28 | 38.21731 | -76.76790 | 34972 ft | 448 kts | 26° |
| 2026-05-04 22:29 | 38.26890 | -76.72327 | 34966 ft | 451 kts | 38° |
| 2026-05-04 22:29 | 38.31672 | -76.67141 | 34962 ft | 451 kts | 38° |
| 2026-05-04 22:30 | 38.36463 | -76.61963 | 34960 ft | 451 kts | 38° |
| 2026-05-04 22:30 | 38.41244 | -76.56783 | 34951 ft | 451 kts | 38° |
| 2026-05-04 22:31 | 38.46029 | -76.51623 | 34953 ft | 450 kts | 38° |
| 2026-05-04 22:31 | 38.50826 | -76.46478 | 34947 ft | 451 kts | 38° |
| 2026-05-04 22:32 | 38.55624 | -76.41328 | 34944 ft | 451 kts | 38° |
| 2026-05-04 22:32 | 38.60391 | -76.36200 | 34945 ft | 451 kts | 38° |
| 2026-05-04 22:33 | 38.65180 | -76.31033 | 34945 ft | 451 kts | 38° |
| 2026-05-04 22:33 | 38.69968 | -76.25859 | 34945 ft | 451 kts | 38° |
| 2026-05-04 22:34 | 38.74762 | -76.20668 | 34954 ft | 451 kts | 38° |
| 2026-05-04 22:34 | 38.79549 | -76.15467 | 34954 ft | 451 kts | 38° |
| 2026-05-04 22:35 | 38.84331 | -76.10265 | 34954 ft | 450 kts | 38° |
| 2026-05-04 22:35 | 38.89111 | -76.05059 | 34955 ft | 450 kts | 38° |
| 2026-05-04 22:36 | 38.93871 | -75.99865 | 34956 ft | 449 kts | 38° |
| 2026-05-04 22:36 | 38.98562 | -75.94637 | 34950 ft | 450 kts | 39° |
| 2026-05-04 22:37 | 39.03147 | -75.89167 | 34951 ft | 450 kts | 41° |
| 2026-05-04 22:37 | 39.07696 | -75.83635 | 34950 ft | 450 kts | 41° |
| 2026-05-04 22:38 | 39.12262 | -75.78135 | 34944 ft | 449 kts | 40° |
| 2026-05-04 22:38 | 39.16845 | -75.72659 | 34948 ft | 449 kts | 40° |
| 2026-05-04 22:39 | 39.21429 | -75.67194 | 34936 ft | 448 kts | 40° |
| 2026-05-04 22:39 | 39.26000 | -75.61724 | 34935 ft | 448 kts | 40° |
| 2026-05-04 22:40 | 39.30550 | -75.56240 | 34933 ft | 447 kts | 40° |
| 2026-05-04 22:40 | 39.35095 | -75.50763 | 34935 ft | 447 kts | 40° |
| 2026-05-04 22:41 | 39.39615 | -75.45309 | 34938 ft | 447 kts | 40° |
| 2026-05-04 22:41 | 39.44144 | -75.39832 | 34934 ft | 446 kts | 40° |
| 2026-05-04 22:42 | 39.48675 | -75.34342 | 34939 ft | 446 kts | 40° |
| 2026-05-04 22:42 | 39.53212 | -75.28834 | 34935 ft | 446 kts | 40° |
| 2026-05-04 22:43 | 39.57734 | -75.23326 | 34935 ft | 446 kts | 40° |
| 2026-05-04 22:43 | 39.62255 | -75.17814 | 34940 ft | 446 kts | 40° |
| 2026-05-04 22:44 | 39.66764 | -75.12299 | 34936 ft | 446 kts | 40° |
| 2026-05-04 22:44 | 39.71354 | -75.06887 | 34932 ft | 445 kts | 38° |
| 2026-05-04 22:44 | 39.73701 | -75.04275 | 35157 ft | 445 kts | 38° |
| 2026-05-04 22:45 | 39.76066 | -75.01679 | 35391 ft | 445 kts | 38° |
| 2026-05-04 22:45 | 39.80759 | -74.96492 | 35808 ft | 446 kts | 38° |
| 2026-05-04 22:45 | 39.83116 | -74.93846 | 36013 ft | 447 kts | 38° |
| 2026-05-04 22:46 | 39.85460 | -74.91187 | 36203 ft | 447 kts | 39° |
| 2026-05-04 22:46 | 39.87805 | -74.88514 | 36377 ft | 448 kts | 39° |
| 2026-05-04 22:46 | 39.90182 | -74.85877 | 36530 ft | 448 kts | 34° |
| 2026-05-04 22:46 | 39.92718 | -74.83514 | 36695 ft | 447 kts | 33° |
| 2026-05-04 22:47 | 39.95256 | -74.81184 | 36881 ft | 446 kts | 33° |
| 2026-05-04 22:47 | 39.97783 | -74.78864 | 36930 ft | 443 kts | 32° |
| 2026-05-04 22:47 | 40.02784 | -74.74193 | 36915 ft | 442 kts | 37° |
| 2026-05-04 22:48 | 40.07090 | -74.68451 | 36932 ft | 443 kts | 45° |
| 2026-05-04 22:48 | 40.11212 | -74.62530 | 36920 ft | 443 kts | 45° |
| 2026-05-04 22:49 | 40.15359 | -74.56575 | 36923 ft | 443 kts | 45° |
| 2026-05-04 22:49 | 40.19503 | -74.50597 | 36928 ft | 443 kts | 44° |
| 2026-05-04 22:50 | 40.24150 | -74.45338 | 36919 ft | 441 kts | 37° |
| 2026-05-04 22:50 | 40.28906 | -74.40266 | 36912 ft | 442 kts | 36° |
| 2026-05-04 22:51 | 40.32860 | -74.36039 | 36914 ft | 441 kts | 37° |
| 2026-05-04 22:51 | 40.37604 | -74.30955 | 36918 ft | 440 kts | 37° |
| 2026-05-04 22:52 | 40.42347 | -74.25865 | 36914 ft | 440 kts | 37° |
| 2026-05-04 22:52 | 40.47084 | -74.20764 | 36908 ft | 441 kts | 37° |
| 2026-05-04 22:53 | 40.51828 | -74.15646 | 36913 ft | 441 kts | 37° |
| 2026-05-04 22:53 | 40.56538 | -74.10572 | 36916 ft | 440 kts | 37° |
| 2026-05-04 22:54 | 40.61270 | -74.05446 | 36911 ft | 441 kts | 37° |
| 2026-05-04 22:54 | 40.66002 | -74.00311 | 36907 ft | 441 kts | 37° |
| 2026-05-04 22:55 | 40.70742 | -73.95161 | 36907 ft | 441 kts | 37° |
| 2026-05-04 22:55 | 40.75485 | -73.90016 | 36912 ft | 442 kts | 37° |
| 2026-05-04 22:56 | 40.80233 | -73.84844 | 36917 ft | 443 kts | 37° |
| 2026-05-04 22:56 | 40.85163 | -73.80017 | 36920 ft | 439 kts | 25° |
| 2026-05-04 22:57 | 40.90830 | -73.77354 | 36910 ft | 430 kts | 6° |
| 2026-05-04 22:57 | 40.96759 | -73.76189 | 36913 ft | 430 kts | 5° |
| 2026-05-04 22:58 | 41.02679 | -73.74993 | 36917 ft | 430 kts | 6° |
| 2026-05-04 22:58 | 41.08571 | -73.73804 | 36925 ft | 431 kts | 6° |
| 2026-05-04 22:59 | 41.14494 | -73.72611 | 36909 ft | 430 kts | 6° |
| 2026-05-04 22:59 | 41.20405 | -73.71427 | 36908 ft | 429 kts | 5° |
| 2026-05-04 23:00 | 41.26307 | -73.70239 | 36910 ft | 429 kts | 5° |
| 2026-05-04 23:00 | 41.32203 | -73.69048 | 36913 ft | 429 kts | 5° |
| 2026-05-04 23:01 | 41.38107 | -73.67850 | 36909 ft | 428 kts | 5° |
| 2026-05-04 23:01 | 41.43998 | -73.66657 | 36902 ft | 428 kts | 5° |
| 2026-05-04 23:02 | 41.49883 | -73.65469 | 36899 ft | 428 kts | 5° |
| 2026-05-04 23:02 | 41.55762 | -73.64278 | 36887 ft | 426 kts | 5° |
| 2026-05-04 23:03 | 41.61624 | -73.63091 | 36876 ft | 426 kts | 5° |
| 2026-05-04 23:03 | 41.67473 | -73.61893 | 36873 ft | 425 kts | 5° |
| 2026-05-04 23:04 | 41.73319 | -73.60693 | 36865 ft | 424 kts | 5° |
| 2026-05-04 23:04 | 41.79153 | -73.59505 | 36856 ft | 424 kts | 5° |
| 2026-05-04 23:05 | 41.84996 | -73.58314 | 36853 ft | 424 kts | 5° |
| 2026-05-04 23:05 | 41.90839 | -73.57113 | 36854 ft | 424 kts | 5° |
| 2026-05-04 23:06 | 41.96636 | -73.55910 | 36858 ft | 424 kts | 5° |
| 2026-05-04 23:06 | 42.02464 | -73.54706 | 36852 ft | 424 kts | 5° |
| 2026-05-04 23:07 | 42.08290 | -73.53503 | 36852 ft | 424 kts | 5° |
| 2026-05-04 23:07 | 42.14115 | -73.52298 | 36848 ft | 424 kts | 5° |
| 2026-05-04 23:08 | 42.19932 | -73.51098 | 36840 ft | 423 kts | 5° |
| 2026-05-04 23:08 | 42.25753 | -73.49895 | 36838 ft | 423 kts | 6° |
| 2026-05-04 23:09 | 42.31575 | -73.48683 | 36837 ft | 423 kts | 5° |
| 2026-05-04 23:09 | 42.37387 | -73.47463 | 36847 ft | 424 kts | 5° |
| 2026-05-04 23:10 | 42.43232 | -73.46234 | 36843 ft | 424 kts | 6° |
| 2026-05-04 23:10 | 42.49073 | -73.45014 | 36839 ft | 425 kts | 5° |
| 2026-05-04 23:11 | 42.54873 | -73.43806 | 36833 ft | 424 kts | 5° |
| 2026-05-04 23:11 | 42.60707 | -73.42599 | 36829 ft | 425 kts | 5° |
| 2026-05-04 23:12 | 42.66548 | -73.41371 | 36831 ft | 425 kts | 5° |
| 2026-05-04 23:12 | 42.72396 | -73.40125 | 36824 ft | 426 kts | 6° |
| 2026-05-04 23:13 | 42.78238 | -73.38883 | 36835 ft | 425 kts | 6° |
| 2026-05-04 23:13 | 42.84078 | -73.37650 | 36821 ft | 425 kts | 5° |
| 2026-05-04 23:14 | 42.89926 | -73.36421 | 36821 ft | 425 kts | 5° |
| 2026-05-04 23:14 | 42.95772 | -73.35170 | 36823 ft | 425 kts | 6° |
| 2026-05-04 23:15 | 43.01626 | -73.34573 | 36826 ft | 419 kts | 353° |
| 2026-05-04 23:15 | 43.07443 | -73.35120 | 36817 ft | 420 kts | 353° |
| 2026-05-04 23:16 | 43.13277 | -73.35631 | 36807 ft | 420 kts | 354° |
| 2026-05-04 23:16 | 43.19069 | -73.36142 | 36803 ft | 419 kts | 353° |
| 2026-05-04 23:17 | 43.24893 | -73.36667 | 36793 ft | 420 kts | 353° |
| 2026-05-04 23:17 | 43.30713 | -73.37199 | 36799 ft | 419 kts | 353° |
| 2026-05-04 23:18 | 43.36541 | -73.37732 | 36795 ft | 419 kts | 353° |
| 2026-05-04 23:18 | 43.39455 | -73.37990 | 36628 ft | 420 kts | 353° |
| 2026-05-04 23:18 | 43.42378 | -73.38251 | 35945 ft | 421 kts | 353° |
| 2026-05-04 23:19 | 43.45303 | -73.38512 | 35223 ft | 422 kts | 353° |
| 2026-05-04 23:19 | 43.48232 | -73.38771 | 34645 ft | 419 kts | 353° |
| 2026-05-04 23:19 | 43.51125 | -73.39024 | 34121 ft | 414 kts | 353° |
| 2026-05-04 23:19 | 43.53994 | -73.39281 | 33581 ft | 411 kts | 353° |
| 2026-05-04 23:20 | 43.56832 | -73.39541 | 33050 ft | 407 kts | 353° |
| 2026-05-04 23:20 | 43.59609 | -73.39797 | 32530 ft | 403 kts | 353° |
| 2026-05-04 23:20 | 43.62393 | -73.40054 | 32002 ft | 399 kts | 353° |
| 2026-05-04 23:20 | 43.65155 | -73.40300 | 31488 ft | 395 kts | 353° |
| 2026-05-04 23:21 | 43.67887 | -73.40546 | 30982 ft | 391 kts | 353° |
| 2026-05-04 23:21 | 43.70599 | -73.40810 | 30507 ft | 392 kts | 353° |
| 2026-05-04 23:21 | 43.73335 | -73.41101 | 30167 ft | 396 kts | 352° |
| 2026-05-04 23:21 | 43.76088 | -73.41411 | 29918 ft | 397 kts | 352° |
| 2026-05-04 23:22 | 43.78840 | -73.41728 | 29668 ft | 396 kts | 352° |
| 2026-05-04 23:22 | 43.81581 | -73.42046 | 29417 ft | 395 kts | 352° |
| 2026-05-04 23:22 | 43.84316 | -73.42362 | 29168 ft | 394 kts | 352° |
| 2026-05-04 23:22 | 43.87049 | -73.42673 | 28916 ft | 393 kts | 352° |
| 2026-05-04 23:23 | 43.89776 | -73.42985 | 28665 ft | 393 kts | 352° |
| 2026-05-04 23:23 | 43.92497 | -73.43298 | 28411 ft | 392 kts | 352° |
| 2026-05-04 23:23 | 43.95209 | -73.43608 | 28165 ft | 391 kts | 352° |
| 2026-05-04 23:23 | 43.97915 | -73.43918 | 27916 ft | 390 kts | 352° |
| 2026-05-04 23:24 | 44.00616 | -73.44228 | 27664 ft | 389 kts | 352° |
| 2026-05-04 23:24 | 44.03271 | -73.44531 | 27413 ft | 387 kts | 352° |
| 2026-05-04 23:24 | 44.05953 | -73.44835 | 27162 ft | 386 kts | 352° |
| 2026-05-04 23:24 | 44.08625 | -73.45142 | 26912 ft | 386 kts | 352° |
| 2026-05-04 23:25 | 44.11293 | -73.45450 | 26659 ft | 384 kts | 352° |
| 2026-05-04 23:25 | 44.13954 | -73.45759 | 26403 ft | 383 kts | 352° |
| 2026-05-04 23:25 | 44.16605 | -73.46066 | 26158 ft | 382 kts | 352° |
| 2026-05-04 23:25 | 44.19253 | -73.46373 | 25931 ft | 382 kts | 352° |
| 2026-05-04 23:26 | 44.21900 | -73.46675 | 25684 ft | 380 kts | 352° |
| 2026-05-04 23:26 | 44.24496 | -73.46968 | 25330 ft | 371 kts | 352° |
| 2026-05-04 23:26 | 44.27044 | -73.47257 | 24924 ft | 363 kts | 352° |
| 2026-05-04 23:26 | 44.29538 | -73.47542 | 24516 ft | 357 kts | 352° |
| 2026-05-04 23:27 | 44.31991 | -73.47824 | 24102 ft | 351 kts | 352° |
| 2026-05-04 23:27 | 44.34407 | -73.48105 | 23692 ft | 346 kts | 352° |
| 2026-05-04 23:27 | 44.36801 | -73.48387 | 23280 ft | 344 kts | 352° |
| 2026-05-04 23:27 | 44.39183 | -73.48667 | 22873 ft | 342 kts | 352° |
| 2026-05-04 23:28 | 44.41546 | -73.48944 | 22458 ft | 340 kts | 352° |
| 2026-05-04 23:28 | 44.43895 | -73.49218 | 22048 ft | 338 kts | 352° |
| 2026-05-04 23:28 | 44.46231 | -73.49489 | 21642 ft | 336 kts | 352° |
| 2026-05-04 23:28 | 44.48559 | -73.49756 | 21224 ft | 334 kts | 352° |
| 2026-05-04 23:29 | 44.50865 | -73.50018 | 20800 ft | 332 kts | 352° |
| 2026-05-04 23:29 | 44.53128 | -73.50275 | 20395 ft | 330 kts | 352° |
| 2026-05-04 23:29 | 44.55438 | -73.50542 | 19978 ft | 328 kts | 351° |
| 2026-05-04 23:29 | 44.57707 | -73.50806 | 19556 ft | 326 kts | 351° |
| 2026-05-04 23:30 | 44.59932 | -73.51069 | 19148 ft | 324 kts | 351° |
| 2026-05-04 23:30 | 44.62170 | -73.51332 | 18738 ft | 322 kts | 351° |
| 2026-05-04 23:30 | 44.64396 | -73.51595 | 18328 ft | 320 kts | 351° |
| 2026-05-04 23:30 | 44.66613 | -73.51855 | 17929 ft | 318 kts | 351° |
| 2026-05-04 23:31 | 44.68812 | -73.52111 | 17648 ft | 315 kts | 351° |
| 2026-05-04 23:31 | 44.71012 | -73.52368 | 17452 ft | 316 kts | 351° |
| 2026-05-04 23:31 | 44.73227 | -73.52633 | 16620 ft | 326 kts | 351° |
| 2026-05-04 23:31 | 44.75515 | -73.52909 | 15955 ft | 330 kts | 351° |
| 2026-05-04 23:32 | 44.77805 | -73.53181 | 15416 ft | 330 kts | 351° |
| 2026-05-04 23:32 | 44.80084 | -73.53453 | 14906 ft | 328 kts | 352° |
| 2026-05-04 23:32 | 44.82349 | -73.53723 | 14415 ft | 326 kts | 352° |
| 2026-05-04 23:32 | 44.84600 | -73.53991 | 13916 ft | 323 kts | 352° |
| 2026-05-04 23:33 | 44.86833 | -73.54254 | 13412 ft | 322 kts | 352° |
| 2026-05-04 23:33 | 44.89058 | -73.54504 | 12919 ft | 320 kts | 352° |
| 2026-05-04 23:33 | 44.91241 | -73.54742 | 12439 ft | 318 kts | 352° |
| 2026-05-04 23:33 | 44.93465 | -73.54983 | 11947 ft | 316 kts | 352° |
| 2026-05-04 23:34 | 44.95645 | -73.55222 | 11449 ft | 314 kts | 352° |
| 2026-05-04 23:34 | 44.97817 | -73.55459 | 10932 ft | 313 kts | 352° |
| 2026-05-04 23:34 | 44.99951 | -73.55693 | 10444 ft | 311 kts | 352° |
| 2026-05-04 23:34 | 45.02112 | -73.55930 | 9954 ft | 310 kts | 353° |
| 2026-05-04 23:35 | 45.04217 | -73.56159 | 9812 ft | 296 kts | 353° |
| 2026-05-04 23:35 | 45.06244 | -73.56383 | 9533 ft | 289 kts | 353° |
| 2026-05-04 23:35 | 45.08237 | -73.56603 | 9121 ft | 287 kts | 353° |
| 2026-05-04 23:35 | 45.10221 | -73.56820 | 8675 ft | 286 kts | 353° |
| 2026-05-04 23:36 | 45.12198 | -73.57035 | 8241 ft | 284 kts | 353° |
| 2026-05-04 23:36 | 45.14159 | -73.57254 | 8014 ft | 283 kts | 353° |
| 2026-05-04 23:36 | 45.16123 | -73.57477 | 8010 ft | 284 kts | 353° |
| 2026-05-04 23:36 | 45.18095 | -73.57702 | 8012 ft | 285 kts | 353° |
| 2026-05-04 23:37 | 45.20065 | -73.57921 | 8014 ft | 284 kts | 353° |
| 2026-05-04 23:37 | 45.22041 | -73.58138 | 8014 ft | 284 kts | 353° |
| 2026-05-04 23:37 | 45.24009 | -73.58352 | 8013 ft | 283 kts | 353° |
| 2026-05-04 23:37 | 45.25979 | -73.58570 | 8012 ft | 284 kts | 353° |
| 2026-05-04 23:38 | 45.27949 | -73.58787 | 8009 ft | 284 kts | 353° |
| 2026-05-04 23:38 | 45.29909 | -73.59001 | 7778 ft | 282 kts | 353° |
| 2026-05-04 23:38 | 45.31858 | -73.59214 | 7337 ft | 280 kts | 353° |
| 2026-05-04 23:38 | 45.33796 | -73.59423 | 6918 ft | 278 kts | 353° |
| 2026-05-04 23:39 | 45.35713 | -73.59636 | 6453 ft | 275 kts | 353° |
| 2026-05-04 23:39 | 45.37623 | -73.59796 | 6067 ft | 274 kts | 0° |
| 2026-05-04 23:39 | 45.39508 | -73.59339 | 5996 ft | 278 kts | 17° |
| 2026-05-04 23:39 | 45.41258 | -73.58164 | 5899 ft | 279 kts | 31° |
| 2026-05-04 23:40 | 45.42328 | -73.57155 | 5586 ft | 278 kts | 32° |
| 2026-05-04 23:40 | 45.43928 | -73.55622 | 5126 ft | 277 kts | 32° |
| 2026-05-04 23:40 | 45.45988 | -73.53628 | 4922 ft | 262 kts | 33° |
| 2026-05-04 23:40 | 45.47461 | -73.52202 | 4792 ft | 250 kts | 33° |
| 2026-05-04 23:41 | 45.48864 | -73.50843 | 4662 ft | 239 kts | 32° |
| 2026-05-04 23:41 | 45.49789 | -73.49948 | 4535 ft | 236 kts | 32° |
| 2026-05-04 23:41 | 45.51139 | -73.48641 | 4290 ft | 233 kts | 32° |
| 2026-05-04 23:41 | 45.52473 | -73.47355 | 4061 ft | 230 kts | 32° |
| 2026-05-04 23:42 | 45.53786 | -73.46089 | 3997 ft | 231 kts | 33° |
| 2026-05-04 23:42 | 45.55109 | -73.44810 | 4001 ft | 224 kts | 32° |
| 2026-05-04 23:42 | 45.56399 | -73.43710 | 3995 ft | 207 kts | 14° |
| 2026-05-04 23:42 | 45.57753 | -73.43683 | 4024 ft | 193 kts | 337° |
| 2026-05-04 23:43 | 45.58866 | -73.44645 | 3821 ft | 186 kts | 319° |
| 2026-05-04 23:43 | 45.59858 | -73.45822 | 3446 ft | 186 kts | 317° |
| 2026-05-04 23:43 | 45.60837 | -73.47034 | 3091 ft | 186 kts | 316° |
| 2026-05-04 23:43 | 45.61801 | -73.48238 | 3001 ft | 185 kts | 316° |
| 2026-05-04 23:44 | 45.62653 | -73.49596 | 3009 ft | 183 kts | 293° |
| 2026-05-04 23:44 | 45.62795 | -73.51333 | 3001 ft | 171 kts | 262° |
| 2026-05-04 23:44 | 45.62583 | -73.52967 | 3000 ft | 164 kts | 257° |
| 2026-05-04 23:44 | 45.62334 | -73.54544 | 3002 ft | 162 kts | 256° |
| 2026-05-04 23:45 | 45.61925 | -73.56019 | 3005 ft | 161 kts | 231° |
| 2026-05-04 23:45 | 45.60994 | -73.56905 | 3002 ft | 162 kts | 212° |
| 2026-05-04 23:45 | 45.60161 | -73.57967 | 3008 ft | 161 kts | 226° |
| 2026-05-04 23:45 | 45.59352 | -73.59076 | 2949 ft | 161 kts | 224° |
| 2026-05-04 23:46 | 45.58533 | -73.60168 | 2793 ft | 161 kts | 224° |
| 2026-05-04 23:46 | 45.57711 | -73.61255 | 2599 ft | 161 kts | 223° |
| 2026-05-04 23:46 | 45.56890 | -73.62338 | 2395 ft | 161 kts | 223° |
| 2026-05-04 23:46 | 45.56078 | -73.63409 | 2186 ft | 161 kts | 223° |
| 2026-05-04 23:47 | 45.55255 | -73.64492 | 1973 ft | 161 kts | 222° |
| 2026-05-04 23:47 | 45.54428 | -73.65579 | 1748 ft | 161 kts | 222° |
| 2026-05-04 23:47 | 45.53605 | -73.66661 | 1556 ft | 161 kts | 222° |
| 2026-05-04 23:47 | 45.52791 | -73.67730 | 1329 ft | 153 kts | 222° |
| 2026-05-04 23:48 | 45.52036 | -73.68723 | 1134 ft | 144 kts | 222° |
| 2026-05-04 23:48 | 45.51310 | -73.69676 | 942 ft | 140 kts | 222° |
| 2026-05-04 23:48 | 45.50596 | -73.70613 | 756 ft | 139 kts | 222° |
| 2026-05-04 23:48 | 45.49886 | -73.71545 | 580 ft | 138 kts | 222° |
| 2026-05-04 23:49 | 45.49173 | -73.72464 | 394 ft | 138 kts | 221° |
| 2026-05-04 23:49 | 45.48475 | -73.73400 | 230 ft | 138 kts | 223° |
| 2026-05-04 23:49 | 45.47774 | -73.74321 | 112 ft | 134 kts | 223° |
| 2026-05-04 23:49 | 45.47230 | -73.75028 | 114 ft | 67 kts | 222° |
| 2026-05-04 23:50 | 45.46979 | -73.75362 | 109 ft | 37 kts | 223° |
| 2026-05-04 23:50 | 45.46776 | -73.75568 | 109 ft | 28 kts | 202° |
| 2026-05-04 23:50 | 45.46630 | -73.75616 | 106 ft | 20 kts | 194° |
| 2026-05-04 23:50 | 45.46511 | -73.75661 | 105 ft | 16 kts | 193° |
| 2026-05-04 23:51 | 45.46404 | -73.75697 | 104 ft | 15 kts | 193° |
| 2026-05-04 23:51 | 45.46313 | -73.75725 | 104 ft | 12 kts | 192° |
| 2026-05-04 23:51 | 45.46242 | -73.75738 | 104 ft | 9 kts | 180° |
| 2026-05-04 23:51 | 45.46174 | -73.75730 | 102 ft | 10 kts | 171° |
| 2026-05-04 23:52 | 45.46102 | -73.75720 | 103 ft | 9 kts | 175° |
| 2026-05-04 23:52 | 45.46060 | -73.75690 | 103 ft | 5 kts | 135° |
| 2026-05-04 23:52 | 45.46039 | -73.75657 | 105 ft | 3 kts | 134° |
| 2026-05-04 23:52 | 45.46004 | -73.75638 | 105 ft | 11 kts | 173° |
| 2026-05-04 23:53 | 45.45977 | -73.75636 | 105 ft | 0 kts | 176° |